Time;durP1;ratioP1;P1;durP2;ratioP2;P2;SDS_P1;SDS_P2;PMS_P1;PMS_P2;Temp;Humidity;BMP_temperature;BMP_pressure;BME280_temperature;BME280_humidity;BME280_pressure;Samples;Min_cycle;Max_cycle;Signal;HPM_P1;HPM_P2
2023/08/18 00:00:59;;;;;;;;;23.80;18.80;;;;;25.49;56.51;101284.41;2036862;28;3579362;-76
2023/08/18 00:02:12;;;;;;;;;23.40;18.40;;;;;25.48;57.15;101294.31;2038446;28;3575196;-76
2023/08/18 00:03:24;;;;;;;;;19.00;16.67;;;;;25.48;56.83;101285.41;1992035;28;3559604;-76
2023/08/18 00:04:35;;;;;;;;;16.67;15.00;;;;;25.46;56.98;101282.84;2007311;27;3547143;-78
2023/08/18 00:05:47;;;;;;;;;22.67;20.00;;;;;25.46;56.98;101282.03;2024380;28;3579387;-79
2023/08/18 00:06:59;;;;;;;;;23.33;21.33;;;;;25.46;57.11;101276.63;2005032;28;3575232;-79
2023/08/18 00:08:11;;;;;;;;;23.67;21.67;;;;;25.45;56.91;101273.09;1998290;28;3569354;-79
2023/08/18 00:09:24;;;;;;;;;18.60;18.20;;;;;25.45;57.48;101277.63;2006538;28;3565163;-79
2023/08/18 00:10:35;;;;;;;;;21.67;18.33;;;;;25.44;57.24;101267.81;1982145;28;3573172;-75
2023/08/18 00:11:47;;;;;;;;;20.00;16.33;;;;;25.43;57.24;101272.38;2001138;28;3560653;-76
2023/08/18 00:12:59;;;;;;;;;14.60;13.60;;;;;25.42;57.32;101276.03;2005684;28;3535603;-76
2023/08/18 00:14:11;;;;;;;;;19.00;17.67;;;;;25.42;57.24;101273.34;2029679;28;3562752;-75
2023/08/18 00:15:23;;;;;;;;;18.67;18.00;;;;;25.43;57.67;101279.59;2000401;28;3564887;-76
2023/08/18 00:16:35;;;;;;;;;23.60;22.60;;;;;25.42;57.09;101269.81;2010734;28;3576281;-76
2023/08/18 00:17:47;;;;;;;;;20.40;19.20;;;;;25.41;57.16;101279.72;2008476;28;3562685;-76
2023/08/18 00:18:58;;;;;;;;;26.50;21.00;;;;;25.41;57.65;101277.03;1989874;28;2506469;-76
2023/08/18 00:20:10;;;;;;;;;20.00;18.67;;;;;25.39;57.04;101279.84;2010359;28;3557525;-76
2023/08/18 00:21:22;;;;;;;;;24.33;19.00;;;;;25.39;57.56;101282.56;1994429;28;3576350;-76
2023/08/18 00:22:34;;;;;;;;;19.67;17.67;;;;;25.40;57.59;101284.25;2009408;28;3572115;-76
2023/08/18 00:23:45;;;;;;;;;22.33;19.33;;;;;25.40;57.73;101289.66;2005230;28;3566923;-77
2023/08/18 00:24:56;;;;;;;;;21.60;19.20;;;;;25.39;57.67;101276.31;1995655;28;2833638;-76
2023/08/18 00:26:10;;;;;;;;;20.00;18.67;;;;;25.39;57.62;101281.69;2023634;28;3579390;-76
2023/08/18 00:27:21;;;;;;;;;18.00;18.00;;;;;25.37;57.71;101279.16;1984704;28;3567956;-75
2023/08/18 00:28:33;;;;;;;;;24.67;21.00;;;;;25.35;57.72;101281.13;1988017;28;3577332;-75
2023/08/18 00:29:44;;;;;;;;;22.80;20.00;;;;;25.35;57.64;101275.75;1989624;28;2831537;-75
2023/08/18 00:30:56;;;;;;;;;21.00;20.60;;;;;25.35;57.54;101275.75;2033183;28;3574189;-74
2023/08/18 00:32:07;;;;;;;;;19.40;18.20;;;;;25.34;57.88;101275.88;2016894;28;2834709;-74
2023/08/18 00:33:19;;;;;;;;;22.33;21.00;;;;;25.34;57.98;101275.88;2024930;28;3575189;-75
2023/08/18 00:34:31;;;;;;;;;20.67;20.00;;;;;25.32;57.92;101272.47;2008584;28;3560670;-74
2023/08/18 00:35:42;;;;;;;;;21.33;21.33;;;;;25.31;57.75;101270.78;2006617;28;3578377;-74
2023/08/18 00:36:56;;;;;;;;;20.86;18.71;;;;;25.29;57.53;101268.19;2006412;28;3577279;-74
2023/08/18 00:38:06;;;;;;;;;26.00;24.00;;;;;25.27;57.68;101268.34;1988071;28;2506509;-74
2023/08/18 00:39:18;;;;;;;;;25.60;21.80;;;;;25.27;57.59;101262.97;2014835;28;3573142;-74
2023/08/18 00:40:30;;;;;;;;;19.67;19.67;;;;;25.26;57.77;101263.13;2032269;28;3576266;-74
2023/08/18 00:41:41;;;;;;;;;24.00;20.50;;;;;25.25;58.19;101264.09;2008985;28;2506491;-74
2023/08/18 00:42:53;;;;;;;;;19.67;17.00;;;;;25.23;58.08;101266.06;2008708;28;3563747;-76
2023/08/18 00:44:05;;;;;;;;;18.33;18.00;;;;;25.22;58.05;101269.72;1998053;28;3565878;-75
2023/08/18 00:45:16;;;;;;;;;19.40;19.00;;;;;25.20;58.37;101264.50;1989026;28;2835654;-76
2023/08/18 00:46:30;;;;;;;;;25.00;21.00;;;;;25.20;58.31;101260.94;2019225;28;3579430;-75
2023/08/18 00:47:43;;;;;;;;;20.00;19.00;;;;;25.19;57.91;101264.66;1984407;28;3575216;-76
2023/08/18 00:48:59;;;;;;;;;21.33;18.67;;;;;25.17;58.46;101264.75;1984844;28;3559611;-76
2023/08/18 00:50:12;;;;;;;;;23.33;19.33;;;;;25.15;58.18;101261.34;1988943;28;3573495;-76
2023/08/18 00:51:24;;;;;;;;;17.67;16.33;;;;;25.13;58.36;101266.88;1988826;28;3559635;-76
2023/08/18 00:52:36;;;;;;;;;23.00;21.67;;;;;25.11;58.13;101260.78;1982511;28;3573192;-76
2023/08/18 00:53:47;;;;;;;;;25.50;21.50;;;;;25.10;58.28;101266.28;1984669;28;2506521;-76
2023/08/18 00:54:59;;;;;;;;;23.00;20.00;;;;;25.09;58.60;101262.72;2005636;28;3581453;-76
2023/08/18 00:56:12;;;;;;;;;22.33;20.00;;;;;25.07;58.58;101262.03;1998835;28;3572103;-76
2023/08/18 00:57:23;;;;;;;;;22.33;21.00;;;;;25.07;58.48;101267.41;1982851;28;3573199;-76
2023/08/18 00:58:36;;;;;;;;;25.67;21.67;;;;;25.05;58.64;101261.31;1996352;28;3586698;-76
2023/08/18 00:59:49;;;;;;;;;19.00;18.67;;;;;25.04;58.38;101257.75;1984314;28;3565860;-76
2023/08/18 01:01:02;;;;;;;;;25.67;22.00;;;;;25.02;58.94;101262.44;1992029;28;3582519;-76
2023/08/18 01:02:13;;;;;;;;;22.00;20.00;;;;;25.01;58.74;101259.88;1993639;28;2837773;-76
2023/08/18 01:03:24;;;;;;;;;20.50;20.50;;;;;25.00;58.75;101260.84;1993966;28;2844037;-77
2023/08/18 01:04:35;;;;;;;;;22.33;21.00;;;;;24.99;58.90;101251.06;1986973;27;3578392;-78
2023/08/18 01:05:47;;;;;;;;;24.67;22.67;;;;;24.99;58.88;101256.44;2000001;28;3578373;-77
2023/08/18 01:06:59;;;;;;;;;27.00;22.00;;;;;24.98;59.33;101254.72;2005615;28;2507008;-77
2023/08/18 01:08:09;;;;;;;;;29.00;23.00;;;;;24.97;59.22;101258.41;1979468;28;2506512;-79
2023/08/18 01:09:22;;;;;;;;;23.67;22.00;;;;;24.94;59.08;101257.69;2009642;28;3581445;-80
2023/08/18 01:10:45;;;;;;;;;22.33;20.00;;;;;24.94;58.74;101256.84;2001284;28;3574267;-80
2023/08/18 01:12:23;;;;;;;;;23.33;21.67;;;;;24.92;58.70;101254.28;1991957;28;3583580;-80
2023/08/18 01:13:54;;;;;;;;;18.50;17.50;;;;;24.91;59.14;101251.75;1993032;28;2815907;-80
2023/08/18 01:15:12;;;;;;;;;23.67;21.00;;;;;24.89;59.08;101261.78;1989922;28;3573184;-78
2023/08/18 01:16:27;;;;;;;;;21.33;20.33;;;;;24.88;59.17;101255.53;1991529;28;3573157;-76
2023/08/18 01:17:50;;;;;;;;;21.33;19.00;;;;;24.88;59.31;101254.69;1984474;28;3575217;-75
2023/08/18 01:19:03;;;;;;;;;21.67;20.00;;;;;24.87;59.36;101242.22;1983874;28;3572131;-75
2023/08/18 01:20:15;;;;;;;;;32.50;27.00;;;;;24.87;59.36;101244.91;1989101;28;2506485;-74
2023/08/18 01:21:26;;;;;;;;;19.67;17.33;;;;;24.85;59.15;101239.66;1990807;28;3566930;-75
2023/08/18 01:22:39;;;;;;;;;23.33;22.67;;;;;24.86;59.31;101237.84;1998326;28;3566918;-77
2023/08/18 01:23:51;;;;;;;;;25.00;22.67;;;;;24.85;59.81;101242.34;1988238;28;3584610;-78
2023/08/18 01:25:03;;;;;;;;;23.00;21.67;;;;;24.84;59.69;101238.00;2001248;28;3579414;-75
2023/08/18 01:26:16;;;;;;;;;24.67;22.33;;;;;24.85;59.61;101242.34;1992908;28;3581501;-75
2023/08/18 01:27:31;;;;;;;;;24.00;22.50;;;;;24.84;59.68;101241.50;1983576;28;2506526;-75
2023/08/18 01:28:43;;;;;;;;;23.50;20.50;;;;;24.83;59.80;101239.81;1984159;28;2506496;-75
2023/08/18 01:29:54;;;;;;;;;23.50;22.00;;;;;24.81;59.37;101232.88;1984049;28;2506525;-76
2023/08/18 01:31:10;;;;;;;;;25.00;21.50;;;;;24.78;59.95;101246.56;1993248;28;2506536;-75
2023/08/18 01:32:28;;;;;;;;;24.00;22.67;;;;;24.76;59.92;101244.03;1984669;28;3573133;-74
2023/08/18 01:34:06;;;;;;;;;20.33;17.67;;;;;24.75;59.43;101241.44;1989461;28;3571172;-75
2023/08/18 01:35:18;;;;;;;;;24.00;20.00;;;;;24.71;59.70;101240.88;1988742;28;3587763;-75
2023/08/18 01:36:37;;;;;;;;;26.00;22.00;;;;;24.70;59.43;101241.84;1991722;28;2506463;-75
2023/08/18 01:37:50;;;;;;;;;24.00;22.00;;;;;24.67;60.15;101239.44;1991214;28;3581466;-75
2023/08/18 01:39:02;;;;;;;;;23.33;22.00;;;;;24.66;59.91;101241.28;1991279;28;3578357;-74
2023/08/18 01:40:16;;;;;;;;;22.00;20.67;;;;;24.63;60.01;101243.34;1990292;28;3575235;-73
2023/08/18 01:41:29;;;;;;;;;23.67;19.00;;;;;24.61;59.90;101246.19;1991812;28;3561739;-73
2023/08/18 01:42:41;;;;;;;;;22.67;22.00;;;;;24.58;60.13;101246.44;1989027;28;3572099;-73
2023/08/18 01:43:53;;;;;;;;;26.00;21.33;;;;;24.57;59.55;101250.13;1992178;28;3580653;-73
2023/08/18 01:45:05;;;;;;;;;22.67;21.33;;;;;24.55;60.00;101244.00;1996124;28;3571104;-73
2023/08/18 01:46:17;;;;;;;;;22.00;20.67;;;;;24.52;60.14;101241.59;1986589;28;3581536;-75
2023/08/18 01:47:29;;;;;;;;;21.40;19.80;;;;;24.49;59.86;101240.88;2003887;28;3564773;-74
2023/08/18 01:48:40;;;;;;;;;28.00;21.50;;;;;24.46;60.17;101243.81;2021162;28;2506463;-74
2023/08/18 01:49:51;;;;;;;;;27.00;22.67;;;;;24.43;60.29;101241.41;2000366;28;3587723;-74
2023/08/18 01:51:04;;;;;;;;;26.29;22.43;;;;;24.40;60.43;101241.66;2002154;28;3590145;-74
2023/08/18 01:52:16;;;;;;;;;27.00;23.00;;;;;24.37;60.73;101233.88;2002696;28;3584017;-74
2023/08/18 01:53:30;;;;;;;;;26.38;22.38;;;;;24.34;60.71;101239.50;2024898;28;3593950;-74
2023/08/18 01:54:40;;;;;;;;;29.50;25.00;;;;;24.30;60.48;101230.81;2005780;28;2506461;-74
2023/08/18 01:55:52;;;;;;;;;31.60;23.20;;;;;24.27;60.88;101233.78;2001549;28;3603336;-73
2023/08/18 01:57:06;;;;;;;;;21.88;21.63;;;;;24.25;61.17;101236.59;2000461;28;3584567;-74
2023/08/18 01:58:17;;;;;;;;;20.00;19.00;;;;;24.23;60.74;101230.47;2008590;28;2837793;-73
2023/08/18 01:59:29;;;;;;;;;22.67;21.33;;;;;24.21;60.90;101232.44;1999918;28;3583522;-72
2023/08/18 02:00:40;;;;;;;;;24.00;23.33;;;;;24.20;60.99;101232.56;2000394;28;3576270;-72
2023/08/18 02:01:55;;;;;;;;;25.29;23.43;;;;;24.19;61.15;101230.84;2003150;28;3580425;-72
2023/08/18 02:03:08;;;;;;;;;24.00;22.67;;;;;24.18;60.84;101224.63;1984332;28;3586792;-71
2023/08/18 02:04:18;;;;;;;;;23.00;23.00;;;;;24.16;60.79;101224.78;1984098;28;2507027;-71
2023/08/18 02:05:32;;;;;;;;;28.38;25.25;;;;;24.16;61.20;101226.59;2000296;28;3598172;-71
2023/08/18 02:06:43;;;;;;;;;22.67;21.33;;;;;24.13;61.58;101221.47;2006396;28;3571057;-71
2023/08/18 02:07:57;;;;;;;;;23.43;21.29;;;;;24.12;61.34;101219.78;2001092;28;3587703;-71
2023/08/18 02:09:08;;;;;;;;;24.67;23.00;;;;;24.10;61.11;101224.44;1982504;28;3585597;-71
2023/08/18 02:10:21;;;;;;;;;27.29;24.71;;;;;24.08;61.18;101229.91;2001515;28;3591893;-71
2023/08/18 02:11:33;;;;;;;;;26.00;20.67;;;;;24.07;61.47;101228.22;2009228;28;3585628;-71
2023/08/18 02:12:44;;;;;;;;;20.20;18.40;;;;;24.05;61.62;101230.19;1997052;28;2827320;-71
2023/08/18 02:13:58;;;;;;;;;27.38;24.38;;;;;24.04;61.68;101228.47;2032408;28;3606485;-71
2023/08/18 02:15:11;;;;;;;;;29.75;26.00;;;;;24.03;61.54;101227.63;2007770;28;3598132;-71
2023/08/18 02:16:23;;;;;;;;;26.33;24.00;;;;;24.01;61.83;101224.22;2014169;28;3580436;-71
2023/08/18 02:17:35;;;;;;;;;25.00;22.40;;;;;24.00;61.92;101227.03;2013564;28;3585629;-71
2023/08/18 02:18:47;;;;;;;;;25.00;24.00;;;;;23.98;61.59;101223.63;2008324;28;3583569;-71
2023/08/18 02:19:59;;;;;;;;;25.67;23.00;;;;;23.97;61.66;101220.09;1984867;28;3577371;-72
2023/08/18 02:21:11;;;;;;;;;25.00;23.33;;;;;23.96;61.72;101221.06;1994251;28;3558573;-71
2023/08/18 02:22:23;;;;;;;;;24.67;23.67;;;;;23.96;61.56;101214.81;1996747;28;3575363;-72
2023/08/18 02:23:36;;;;;;;;;28.00;24.63;;;;;23.96;61.68;101217.50;2002425;28;3584568;-72
2023/08/18 02:24:47;;;;;;;;;23.00;20.50;;;;;23.94;62.11;101217.66;2009809;28;2832601;-72
2023/08/18 02:26:02;;;;;;;;;24.33;22.33;;;;;23.94;61.75;101220.34;2000589;28;3588745;-72
2023/08/18 02:27:14;;;;;;;;;24.33;22.00;;;;;23.93;62.13;101221.31;1983820;28;3581471;-72
2023/08/18 02:28:26;;;;;;;;;20.67;19.33;;;;;23.93;61.93;101226.69;2000347;28;3575232;-71
2023/08/18 02:29:38;;;;;;;;;24.00;22.00;;;;;23.92;61.99;101224.97;2001403;28;3567988;-71
2023/08/18 02:31:05;;;;;;;;;26.63;22.75;;;;;23.91;62.09;101229.50;2006513;28;3582500;-71
2023/08/18 02:32:18;;;;;;;;;26.67;23.33;;;;;23.90;62.07;101226.94;2008978;28;3585137;-71
2023/08/18 02:33:31;;;;;;;;;24.33;24.33;;;;;23.89;62.37;101225.22;1984706;28;3575221;-71
2023/08/18 02:34:42;;;;;;;;;26.00;23.00;;;;;23.88;62.16;101223.53;1989476;28;2841951;-71
2023/08/18 02:35:56;;;;;;;;;29.88;24.00;;;;;23.87;62.29;101230.75;2008317;28;3605958;-71
2023/08/18 02:37:07;;;;;;;;;28.50;23.00;;;;;23.87;62.27;101232.56;2015575;28;2506518;-71
2023/08/18 02:38:21;;;;;;;;;29.25;24.63;;;;;23.88;62.58;101223.53;2009421;28;3599225;-71
2023/08/18 02:39:31;;;;;;;;;28.00;22.00;;;;;23.85;62.34;101218.41;2012898;28;2506465;-71
2023/08/18 02:40:45;;;;;;;;;31.63;27.50;;;;;23.85;62.46;101218.41;2003962;28;3602325;-71
2023/08/18 02:41:56;;;;;;;;;25.33;22.00;;;;;23.85;62.37;101219.28;1990239;28;3585616;-71
2023/08/18 02:43:08;;;;;;;;;24.33;24.00;;;;;23.83;62.49;101216.69;2009202;28;3575268;-71
2023/08/18 02:44:20;;;;;;;;;26.67;23.67;;;;;23.83;62.22;101216.69;1995438;28;3576293;-71
2023/08/18 02:45:32;;;;;;;;;26.67;22.00;;;;;23.85;62.37;101221.09;1990784;28;3577315;-71
2023/08/18 02:46:44;;;;;;;;;30.80;23.60;;;;;23.85;62.79;101219.28;2008836;28;3583554;-71
2023/08/18 02:47:57;;;;;;;;;31.40;28.40;;;;;23.85;62.44;101211.22;2013743;28;3598171;-71
2023/08/18 02:49:08;;;;;;;;;28.00;25.50;;;;;23.85;62.88;101213.91;1984094;28;2506473;-73
2023/08/18 02:50:20;;;;;;;;;20.60;17.40;;;;;23.86;62.52;101209.38;2005746;28;3559691;-73
2023/08/18 02:51:32;;;;;;;;;27.40;25.00;;;;;23.87;62.44;101211.94;2038445;28;3591862;-73
2023/08/18 02:52:45;;;;;;;;;24.13;20.75;;;;;23.89;62.51;101206.44;2009816;28;3588757;-72
2023/08/18 02:53:57;;;;;;;;;25.67;25.33;;;;;23.89;62.72;101210.00;2014487;28;3581501;-73
2023/08/18 02:55:09;;;;;;;;;31.00;28.00;;;;;23.90;62.67;101210.84;2010717;28;3598100;-73
2023/08/18 02:56:21;;;;;;;;;29.00;26.80;;;;;23.90;62.28;101217.03;2011930;28;3606472;-73
2023/08/18 02:57:33;;;;;;;;;26.20;24.80;;;;;23.91;62.76;101207.16;2010189;28;3579352;-73
2023/08/18 02:58:46;;;;;;;;;30.00;25.50;;;;;23.92;62.55;101208.88;2000947;28;3588738;-76
2023/08/18 02:59:58;;;;;;;;;18.67;15.33;;;;;23.92;62.42;101208.88;2013809;28;3547668;-74
2023/08/18 03:01:10;;;;;;;;;26.00;23.80;;;;;23.93;62.19;101210.56;2005426;28;3591857;-75
2023/08/18 03:02:21;;;;;;;;;27.00;21.00;;;;;23.94;61.94;101199.72;2004083;28;3587037;-75
2023/08/18 03:03:34;;;;;;;;;25.80;24.00;;;;;23.94;62.67;101202.41;2012475;28;3580409;-75
2023/08/18 03:04:45;;;;;;;;;30.00;25.00;;;;;23.93;62.42;101198.00;1990355;28;2506500;-76
2023/08/18 03:06:04;;;;;;;;;28.38;25.50;;;;;23.94;62.73;101193.50;2009171;28;3596438;-74
2023/08/18 03:07:14;;;;;;;;;25.00;23.50;;;;;23.94;62.64;101190.81;2013233;28;2840961;-74
2023/08/18 03:08:26;;;;;;;;;34.60;27.60;;;;;23.94;62.70;101196.19;2009450;28;3605430;-74
2023/08/18 03:09:38;;;;;;;;;29.60;27.40;;;;;23.93;62.68;101189.97;2000173;28;3595027;-74
2023/08/18 03:10:59;;;;;;;;;27.29;24.00;;;;;23.95;62.61;101192.53;2000286;28;3585641;-74
2023/08/18 03:12:10;;;;;;;;;28.50;24.50;;;;;23.95;62.39;101195.22;1984247;28;2506489;-72
2023/08/18 03:13:21;;;;;;;;;28.00;24.60;;;;;23.95;62.69;101197.91;2002923;28;3582484;-71
2023/08/18 03:14:33;;;;;;;;;30.33;26.33;;;;;23.96;62.62;101188.84;2024571;28;3587758;-72
2023/08/18 03:15:47;;;;;;;;;28.13;27.38;;;;;23.97;62.32;101190.56;2001451;28;3589783;-71
2023/08/18 03:16:59;;;;;;;;;29.33;28.33;;;;;23.97;62.96;101185.19;2006826;28;3590872;-71
2023/08/18 03:18:10;;;;;;;;;33.50;25.00;;;;;23.97;62.72;101184.34;2001169;28;2506544;-72
2023/08/18 03:19:21;;;;;;;;;27.60;24.00;;;;;23.97;62.50;101185.19;2011213;28;3582503;-72
2023/08/18 03:20:35;;;;;;;;;34.75;25.63;;;;;23.98;62.57;101180.69;2033820;28;3623104;-72
2023/08/18 03:21:47;;;;;;;;;28.20;26.40;;;;;23.97;62.64;101185.19;2013137;28;3581473;-72
2023/08/18 03:22:59;;;;;;;;;27.60;24.40;;;;;23.97;62.68;101184.34;2012572;28;3578867;-72
2023/08/18 03:24:10;;;;;;;;;26.50;25.00;;;;;23.97;62.53;101178.97;1991347;28;2850218;-72
2023/08/18 03:25:22;;;;;;;;;24.60;18.80;;;;;23.97;62.39;101177.16;2007023;28;3590809;-72
2023/08/18 03:26:33;;;;;;;;;27.50;25.50;;;;;23.97;62.52;101182.50;2008035;28;2506469;-72
2023/08/18 03:27:44;;;;;;;;;30.00;26.00;;;;;23.98;62.72;101180.69;2004803;28;2506532;-72
2023/08/18 03:28:57;;;;;;;;;22.80;22.00;;;;;23.97;62.55;101179.81;2015986;28;3582496;-74
2023/08/18 03:30:09;;;;;;;;;20.67;20.00;;;;;23.97;62.70;101182.50;2014262;28;3575275;-73
2023/08/18 03:31:19;;;;;;;;;27.00;23.00;;;;;23.97;62.65;101181.66;1989341;28;2506530;-73
2023/08/18 03:32:32;;;;;;;;;27.80;26.00;;;;;23.96;62.62;101180.78;2003112;28;3591874;-73
2023/08/18 03:33:43;;;;;;;;;25.20;24.20;;;;;23.96;62.82;101183.47;1988078;28;3577281;-73
2023/08/18 03:34:57;;;;;;;;;27.50;26.63;;;;;23.95;62.55;101181.78;2001012;28;3590837;-74
2023/08/18 03:36:08;;;;;;;;;26.00;24.00;;;;;23.93;62.63;101176.53;2006275;28;3574222;-74
2023/08/18 03:37:19;;;;;;;;;29.00;24.50;;;;;23.93;62.29;101179.22;2001149;28;2506553;-75
2023/08/18 03:38:31;;;;;;;;;23.67;21.67;;;;;23.92;62.92;101179.34;1999229;28;3583530;-74
2023/08/18 03:39:43;;;;;;;;;30.20;27.20;;;;;23.90;62.65;101176.78;2006235;28;3599158;-74
2023/08/18 03:41:13;;;;;;;;;28.80;24.80;;;;;23.90;62.61;101175.94;1999259;28;3596052;-74
2023/08/18 03:42:23;;;;;;;;;21.50;20.00;;;;;23.89;62.70;101176.91;1985329;28;2837764;-75
2023/08/18 03:43:37;;;;;;;;;32.88;27.50;;;;;23.88;62.96;101176.06;1999815;28;3609603;-74
2023/08/18 03:44:49;;;;;;;;;30.00;25.67;;;;;23.86;63.23;101175.34;1989949;28;3602373;-73
2023/08/18 03:46:25;;;;;;;;;27.00;24.00;;;;;23.83;63.12;101176.44;1997101;28;3587724;-73
2023/08/18 03:47:35;;;;;;;;;25.00;22.50;;;;;23.81;63.13;101170.38;1987240;28;2839849;-72
2023/08/18 03:48:48;;;;;;;;;22.67;22.00;;;;;23.80;62.87;101170.50;1999866;28;3576317;-73
2023/08/18 03:50:00;;;;;;;;;23.50;21.00;;;;;23.80;62.74;101166.00;1995349;28;2842958;-73
2023/08/18 03:51:10;;;;;;;;;29.00;23.00;;;;;23.79;62.87;101161.59;1990825;28;2847145;-73
2023/08/18 03:52:22;;;;;;;;;31.80;27.00;;;;;23.79;62.59;101172.31;2006981;28;3586643;-73
2023/08/18 03:53:37;;;;;;;;;26.00;22.00;;;;;23.79;63.31;101166.09;2001000;28;3590829;-73
2023/08/18 03:54:47;;;;;;;;;27.00;23.00;;;;;23.77;63.18;101166.25;2009174;28;2838181;-73
2023/08/18 03:56:02;;;;;;;;;30.40;22.40;;;;;23.76;62.78;101169.88;2000369;28;3599552;-73
2023/08/18 03:57:12;;;;;;;;;26.50;23.00;;;;;23.76;63.16;101172.56;1980681;28;2507006;-73
2023/08/18 03:58:24;;;;;;;;;30.40;26.40;;;;;23.75;63.15;101173.56;2007375;28;3585609;-74
2023/08/18 03:59:36;;;;;;;;;26.33;24.00;;;;;23.73;63.38;101178.19;1999437;28;3578369;-74
2023/08/18 04:00:48;;;;;;;;;24.40;22.60;;;;;23.71;63.39;101170.28;2009404;28;3569989;-74
2023/08/18 04:02:02;;;;;;;;;27.75;25.00;;;;;23.70;63.11;101167.72;2008564;28;3593977;-73
2023/08/18 04:03:13;;;;;;;;;32.50;25.00;;;;;23.67;63.27;101171.53;2008023;28;2506460;-73
2023/08/18 04:04:25;;;;;;;;;25.00;23.67;;;;;23.68;63.02;101169.69;1992760;27;3583565;-75
2023/08/18 04:05:43;;;;;;;;;25.20;23.20;;;;;23.66;63.41;101172.47;2008657;28;3584583;-74
2023/08/18 04:06:54;;;;;;;;;25.50;24.00;;;;;23.66;62.73;101168.94;1988602;28;2844098;-74
2023/08/18 04:08:05;;;;;;;;;25.33;23.67;;;;;23.67;63.07;101173.34;2004794;28;3579806;-75
2023/08/18 04:09:17;;;;;;;;;25.20;22.80;;;;;23.67;63.70;101178.72;2015398;28;3583549;-76
2023/08/18 04:10:30;;;;;;;;;25.57;24.14;;;;;23.66;63.27;101174.31;2010358;28;3585624;-73
2023/08/18 04:11:43;;;;;;;;;29.67;26.00;;;;;23.65;63.48;101175.31;2005709;28;3588730;-75
2023/08/18 04:12:54;;;;;;;;;32.67;27.33;;;;;23.63;63.19;101171.91;1988329;28;2864827;-74
2023/08/18 04:14:05;;;;;;;;;30.00;27.00;;;;;23.60;63.79;101171.19;2010138;28;2862729;-71
2023/08/18 04:15:17;;;;;;;;;32.40;28.40;;;;;23.59;63.41;101172.16;2005876;28;3614981;-71
2023/08/18 04:16:31;;;;;;;;;30.40;26.40;;;;;23.59;63.44;101171.28;2010192;28;3590825;-71
2023/08/18 04:17:41;;;;;;;;;25.00;24.00;;;;;23.58;63.58;101173.09;1992172;28;2848134;-71
2023/08/18 04:18:53;;;;;;;;;29.00;25.00;;;;;23.56;63.38;101169.69;2003023;28;3601329;-72
2023/08/18 04:20:08;;;;;;;;;33.40;29.00;;;;;23.55;63.66;101170.69;2009185;28;3598132;-71
2023/08/18 04:21:20;;;;;;;;;24.67;23.33;;;;;23.54;63.88;101168.97;1991793;28;3574182;-71
2023/08/18 04:22:32;;;;;;;;;28.40;26.20;;;;;23.52;63.80;101170.94;2013340;27;3594013;-73
2023/08/18 04:23:44;;;;;;;;;29.80;25.80;;;;;23.52;64.10;101165.59;1992925;28;3598106;-73
2023/08/18 04:24:56;;;;;;;;;30.00;29.80;;;;;23.51;64.18;101174.59;2005844;28;3596041;-73
2023/08/18 04:26:12;;;;;;;;;35.88;27.00;;;;;23.49;64.14;101168.50;2004052;27;3624215;-73
2023/08/18 04:27:23;;;;;;;;;25.67;23.33;;;;;23.48;64.15;101169.47;1983451;28;3583557;-72
2023/08/18 04:28:35;;;;;;;;;27.60;23.80;;;;;23.45;63.73;101167.88;2000796;28;3584690;-73
2023/08/18 04:29:47;;;;;;;;;23.20;22.00;;;;;23.44;64.08;101162.63;2009640;28;3585620;-73
2023/08/18 04:30:59;;;;;;;;;21.00;20.50;;;;;23.44;63.80;101168.00;2003024;28;2506498;-74
2023/08/18 04:32:10;;;;;;;;;28.67;25.00;;;;;23.42;63.94;101159.22;1987955;28;3583582;-74
2023/08/18 04:33:21;;;;;;;;;30.00;25.00;;;;;23.43;64.24;101160.94;1998735;28;2506501;-74
2023/08/18 04:34:33;;;;;;;;;34.40;28.00;;;;;23.43;64.28;101161.81;2003767;28;3616881;-75
2023/08/18 04:35:45;;;;;;;;;26.33;24.67;;;;;23.41;63.91;101157.53;1997825;28;3578353;-75
2023/08/18 04:36:59;;;;;;;;;31.63;27.00;;;;;23.41;64.21;101157.53;2005672;28;3608537;-74
2023/08/18 04:38:13;;;;;;;;;26.40;23.40;;;;;23.41;64.43;101153.00;2010338;28;3577352;-74
2023/08/18 04:39:24;;;;;;;;;27.50;26.00;;;;;23.42;64.22;101154.72;1992928;28;2854384;-74
2023/08/18 04:40:38;;;;;;;;;29.50;28.25;;;;;23.43;64.39;101163.63;2009093;28;3612734;-72
2023/08/18 04:41:50;;;;;;;;;28.00;25.00;;;;;23.42;63.87;101157.41;2010245;28;3599179;-72
2023/08/18 04:43:02;;;;;;;;;34.60;27.20;;;;;23.43;64.18;101151.06;2015594;28;3612699;-72
2023/08/18 04:44:13;;;;;;;;;25.80;25.00;;;;;23.45;64.29;101153.63;2014186;28;3589776;-73
2023/08/18 04:45:27;;;;;;;;;34.88;28.50;;;;;23.45;64.16;101154.47;2008229;28;3611688;-74
2023/08/18 04:46:39;;;;;;;;;34.80;28.60;;;;;23.44;64.29;101146.53;2030531;28;3609578;-73
2023/08/18 04:47:51;;;;;;;;;32.00;29.80;;;;;23.45;64.55;101153.63;2009080;28;3597067;-73
2023/08/18 04:49:03;;;;;;;;;33.80;28.80;;;;;23.45;64.33;101153.63;2007366;28;3600239;-74
2023/08/18 04:50:15;;;;;;;;;24.67;21.00;;;;;23.43;64.33;101153.75;1999676;28;3577327;-73
2023/08/18 04:51:27;;;;;;;;;29.00;25.50;;;;;23.44;64.03;101160.81;2004678;28;2506502;-73
2023/08/18 04:52:37;;;;;;;;;26.50;25.00;;;;;23.44;63.99;101160.81;1987650;28;2840902;-74
2023/08/18 04:53:50;;;;;;;;;25.14;23.43;;;;;23.44;64.27;101163.50;2003206;28;3590872;-73
2023/08/18 04:55:02;;;;;;;;;26.80;23.60;;;;;23.44;64.26;101166.16;2007473;28;3582599;-74
2023/08/18 04:56:15;;;;;;;;;27.80;24.80;;;;;23.44;64.41;101154.59;2028416;28;3596032;-73
2023/08/18 04:57:26;;;;;;;;;32.50;25.00;;;;;23.44;63.87;101158.13;1990826;28;2506497;-73
2023/08/18 04:58:37;;;;;;;;;21.33;20.00;;;;;23.45;64.31;101159.84;1992406;28;3574167;-73
2023/08/18 04:59:49;;;;;;;;;25.20;22.00;;;;;23.44;64.29;101159.94;2004415;28;3575260;-73
2023/08/18 05:01:01;;;;;;;;;29.20;26.60;;;;;23.43;64.31;101156.44;2011180;28;3605460;-73
2023/08/18 05:02:13;;;;;;;;;29.00;23.33;;;;;23.43;64.28;101152.91;2003070;28;3589930;-73
2023/08/18 05:03:25;;;;;;;;;31.40;27.60;;;;;23.41;64.56;101146.81;2009898;28;3606494;-73
2023/08/18 05:04:37;;;;;;;;;27.33;24.67;;;;;23.40;64.66;101156.69;2001889;28;3581490;-73
2023/08/18 05:06:09;;;;;;;;;26.20;23.60;;;;;23.41;64.76;101152.19;2003911;28;3581455;-73
2023/08/18 05:07:21;;;;;;;;;26.50;25.00;;;;;23.41;64.95;101149.50;1988466;28;2852376;-74
2023/08/18 05:08:34;;;;;;;;;34.33;30.00;;;;;23.39;65.25;101152.28;1990457;28;3585672;-73
2023/08/18 05:09:45;;;;;;;;;28.33;24.33;;;;;23.37;64.60;101151.56;1990264;28;3590928;-73
2023/08/18 05:11:00;;;;;;;;;32.60;29.20;;;;;23.37;64.95;101148.88;1994526;28;2849336;-73
2023/08/18 05:12:11;;;;;;;;;31.67;28.00;;;;;23.38;64.58;101148.75;2013423;28;3600266;-73
2023/08/18 05:13:23;;;;;;;;;32.20;26.00;;;;;23.40;64.90;101153.13;2006790;28;3593987;-73
2023/08/18 05:14:35;;;;;;;;;34.20;27.40;;;;;23.41;65.06;101146.81;2013515;28;3604366;-73
2023/08/18 05:15:48;;;;;;;;;28.00;23.00;;;;;23.41;65.05;101146.81;2004348;28;3598148;-73
2023/08/18 05:16:58;;;;;;;;;32.50;25.00;;;;;23.42;64.68;101144.00;1990153;28;2864860;-73
2023/08/18 05:18:09;;;;;;;;;33.00;26.50;;;;;23.43;64.59;101139.50;2005197;28;2506557;-73
2023/08/18 05:19:21;;;;;;;;;26.60;23.80;;;;;23.44;64.66;101141.16;2014365;28;3583628;-73
2023/08/18 05:20:33;;;;;;;;;31.40;27.00;;;;;23.45;64.87;101142.88;2032989;28;3591878;-73
2023/08/18 05:21:45;;;;;;;;;31.00;28.00;;;;;23.45;64.84;101138.38;2013311;28;3606468;-73
2023/08/18 05:22:57;;;;;;;;;33.40;28.40;;;;;23.46;64.89;101144.56;2012402;28;3608588;-73
2023/08/18 05:24:11;;;;;;;;;29.25;26.63;;;;;23.46;65.00;101144.56;2009693;28;3588734;-73